Time;durP1;ratioP1;P1;durP2;ratioP2;P2;SDS_P1;SDS_P2;PMS_P1;PMS_P2;Temp;Humidity;BMP_temperature;BMP_pressure;BME280_temperature;BME280_humidity;BME280_pressure;Samples;Min_cycle;Max_cycle;Signal;HPM_P1;HPM_P2
2024/01/14 00:01:37;;;;;;;32.10;9.50;;;;;;;;;;5049797;28;20053;-64
2024/01/14 00:04:04;;;;;;;22.85;7.80;;;;;;;;;;5034952;28;20045;-64
2024/01/14 00:06:31;;;;;;;27.13;9.98;;;;;;;;;;5049038;28;20048;-64
2024/01/14 00:08:57;;;;;;;14.68;5.88;;;;;;;;;;5050498;28;20106;-65
2024/01/14 00:11:27;;;;;;;21.08;7.15;;;;;;;;;;5051015;28;20191;-64
2024/01/14 00:13:55;;;;;;;32.05;10.85;;;;;;;;;;5027988;28;20057;-65
2024/01/14 00:16:25;;;;;;;22.52;8.73;;;;;;;;;;5047287;28;20037;-65
2024/01/14 00:18:52;;;;;;;30.17;9.52;;;;;;;;;;5038468;28;20060;-64
2024/01/14 00:21:18;;;;;;;27.10;8.80;;;;;;;;;;5040112;28;20052;-63
2024/01/14 00:23:45;;;;;;;26.25;9.07;;;;;;;;;;5033754;28;20140;-64
2024/01/14 00:26:12;;;;;;;23.88;9.15;;;;;;;;;;5030645;28;20057;-64
2024/01/14 00:28:38;;;;;;;24.33;10.05;;;;;;;;;;5035423;28;20099;-62
2024/01/14 00:31:07;;;;;;;30.27;12.30;;;;;;;;;;5037392;28;20292;-63
2024/01/14 00:33:33;;;;;;;20.65;7.50;;;;;;;;;;5024565;28;20191;-62
2024/01/14 00:36:03;;;;;;;25.20;8.57;;;;;;;;;;5037491;28;20064;-62
2024/01/14 00:38:29;;;;;;;21.25;8.30;;;;;;;;;;5040748;28;20052;-62
2024/01/14 00:40:56;;;;;;;22.52;7.75;;;;;;;;;;5039537;28;20056;-63
2024/01/14 00:43:23;;;;;;;20.65;7.30;;;;;;;;;;5026617;28;20128;-62
2024/01/14 00:45:51;;;;;;;31.95;10.77;;;;;;;;;;5038695;28;20060;-63
2024/01/14 00:48:20;;;;;;;25.33;8.98;;;;;;;;;;5030489;28;20048;-62
2024/01/14 00:50:47;;;;;;;28.95;9.38;;;;;;;;;;5038165;28;20056;-63
2024/01/14 00:53:13;;;;;;;27.27;9.63;;;;;;;;;;5031356;28;20068;-64
2024/01/14 00:55:40;;;;;;;26.52;9.30;;;;;;;;;;5034802;28;20037;-63
2024/01/14 00:58:07;;;;;;;26.92;9.63;;;;;;;;;;5047526;28;20107;-64
2024/01/14 01:00:34;;;;;;;27.70;10.02;;;;;;;;;;5037150;28;20060;-64
2024/01/14 01:03:00;;;;;;;25.52;9.40;;;;;;;;;;5040431;28;20160;-64
2024/01/14 01:05:29;;;;;;;30.08;10.02;;;;;;;;;;5046114;28;20065;-63
2024/01/14 01:07:56;;;;;;;28.58;9.65;;;;;;;;;;5035795;28;20085;-63
2024/01/14 01:10:23;;;;;;;31.77;11.13;;;;;;;;;;5042486;28;20053;-63
2024/01/14 01:12:49;;;;;;;29.33;9.63;;;;;;;;;;5035950;28;20140;-63
2024/01/14 01:15:16;;;;;;;27.50;10.77;;;;;;;;;;5022602;28;20060;-63
2024/01/14 01:17:48;;;;;;;45.05;14.02;;;;;;;;;;5049860;28;20088;-62
2024/01/14 01:20:15;;;;;;;32.53;11.15;;;;;;;;;;5029861;28;20049;-62
2024/01/14 01:22:43;;;;;;;27.33;10.15;;;;;;;;;;5012522;28;20064;-63
2024/01/14 01:25:11;;;;;;;25.92;9.98;;;;;;;;;;5034052;28;20137;-63
2024/01/14 01:27:38;;;;;;;38.90;13.50;;;;;;;;;;5036222;28;20088;-62
2024/01/14 01:30:06;;;;;;;27.13;10.52;;;;;;;;;;5031455;28;20326;-64
2024/01/14 01:32:33;;;;;;;28.08;10.35;;;;;;;;;;5039796;28;20061;-64
2024/01/14 01:34:59;;;;;;;26.58;9.15;;;;;;;;;;5038976;28;20056;-63
2024/01/14 01:37:26;;;;;;;27.27;9.65;;;;;;;;;;5044289;28;20063;-63
2024/01/14 01:39:58;;;;;;;28.98;10.27;;;;;;;;;;5037881;28;20057;-64
2024/01/14 01:42:28;;;;;;;28.58;9.70;;;;;;;;;;5027630;28;20187;-63
2024/01/14 01:44:55;;;;;;;26.00;9.95;;;;;;;;;;5027590;28;20155;-63
2024/01/14 01:47:24;;;;;;;30.80;12.13;;;;;;;;;;5035460;28;20067;-63
2024/01/14 01:49:51;;;;;;;29.95;10.05;;;;;;;;;;5036997;28;20159;-63
2024/01/14 01:52:18;;;;;;;29.02;11.73;;;;;;;;;;5045307;28;20166;-64
2024/01/14 01:54:46;;;;;;;29.83;11.18;;;;;;;;;;5032897;28;20222;-64
2024/01/14 01:57:15;;;;;;;31.83;11.15;;;;;;;;;;5021051;28;20049;-62
2024/01/14 01:59:45;;;;;;;31.42;10.85;;;;;;;;;;5027197;28;20041;-63
2024/01/14 02:02:12;;;;;;;34.20;11.70;;;;;;;;;;5013333;28;20053;-63
2024/01/14 02:04:40;;;;;;;28.35;10.05;;;;;;;;;;5031231;28;20088;-63
2024/01/14 02:07:07;;;;;;;27.50;9.60;;;;;;;;;;5035108;28;20056;-63
2024/01/14 02:09:34;;;;;;;25.50;10.13;;;;;;;;;;5037492;28;20068;-63
2024/01/14 02:12:01;;;;;;;33.70;13.13;;;;;;;;;;5032963;28;20052;-64
2024/01/14 02:14:29;;;;;;;23.65;8.98;;;;;;;;;;5030083;28;20056;-63
2024/01/14 02:16:56;;;;;;;29.17;10.00;;;;;;;;;;5045879;28;20212;-62
2024/01/14 02:19:23;;;;;;;32.03;10.85;;;;;;;;;;5049504;28;20053;-63
2024/01/14 02:21:55;;;;;;;33.50;11.38;;;;;;;;;;5034211;28;20064;-62
2024/01/14 02:24:28;;;;;;;27.38;10.65;;;;;;;;;;5045848;28;21504;-63
2024/01/14 02:26:55;;;;;;;33.95;11.55;;;;;;;;;;5036151;28;20079;-63
2024/01/14 02:29:22;;;;;;;28.77;11.32;;;;;;;;;;5036449;28;20075;-62
2024/01/14 02:31:49;;;;;;;28.20;10.48;;;;;;;;;;5037419;28;20059;-62
2024/01/14 02:34:16;;;;;;;30.17;10.60;;;;;;;;;;5024833;28;20119;-62
2024/01/14 02:36:43;;;;;;;26.10;9.85;;;;;;;;;;5041741;28;20123;-62
2024/01/14 02:39:12;;;;;;;28.02;10.63;;;;;;;;;;5042981;28;20057;-63
2024/01/14 02:41:40;;;;;;;27.73;9.18;;;;;;;;;;5040814;28;20049;-62
2024/01/14 02:44:07;;;;;;;25.38;8.60;;;;;;;;;;5018427;28;20053;-64
2024/01/14 02:46:34;;;;;;;25.73;9.88;;;;;;;;;;5038721;28;20084;-62
2024/01/14 02:49:00;;;;;;;24.67;9.43;;;;;;;;;;5048615;28;20067;-63
2024/01/14 02:51:27;;;;;;;25.33;9.85;;;;;;;;;;5037983;28;20129;-63
2024/01/14 02:53:57;;;;;;;23.00;9.55;;;;;;;;;;5029800;28;20076;-62
2024/01/14 02:58:54;;;;;;;23.77;9.35;;;;;;;;;;4942481;28;20066;-62
2024/01/14 03:01:23;;;;;;;23.75;10.02;;;;;;;;;;4938811;28;20057;-62
2024/01/14 03:03:52;;;;;;;32.85;11.05;;;;;;;;;;4914315;28;20046;-63
2024/01/14 03:06:20;;;;;;;28.27;9.98;;;;;;;;;;4952725;28;20083;-62
2024/01/14 03:08:52;;;;;;;28.00;10.70;;;;;;;;;;4938719;28;20057;-62
2024/01/14 03:11:19;;;;;;;35.38;11.65;;;;;;;;;;4938628;28;20050;-62
2024/01/14 03:13:47;;;;;;;31.98;12.23;;;;;;;;;;4939479;28;20062;-62
2024/01/14 03:16:16;;;;;;;33.45;11.45;;;;;;;;;;4932655;28;20050;-62
2024/01/14 03:18:42;;;;;;;36.15;12.27;;;;;;;;;;4938243;28;20055;-62
2024/01/14 03:21:19;;;;;;;30.83;10.40;;;;;;;;;;4938470;28;20047;-62
2024/01/14 03:23:46;;;;;;;27.13;11.45;;;;;;;;;;4912903;28;20068;-65
2024/01/14 03:26:57;;;;;;;35.13;12.50;;;;;;;;;;4932265;28;20144;-64
2024/01/14 03:29:24;;;;;;;38.38;13.02;;;;;;;;;;4929164;28;20122;-64
2024/01/14 03:31:55;;;;;;;37.25;13.32;;;;;;;;;;4950343;28;20054;-64
2024/01/14 03:34:23;;;;;;;32.70;10.95;;;;;;;;;;4949240;28;20063;-64
2024/01/14 03:36:49;;;;;;;33.65;12.07;;;;;;;;;;4954835;28;20086;-64
2024/01/14 03:39:19;;;;;;;32.88;13.23;;;;;;;;;;4936812;28;20054;-64
2024/01/14 03:41:46;;;;;;;27.85;9.90;;;;;;;;;;4948034;28;20061;-61
2024/01/14 03:44:14;;;;;;;38.00;14.75;;;;;;;;;;4928144;28;20059;-63
2024/01/14 03:46:40;;;;;;;26.17;10.05;;;;;;;;;;4939608;28;20058;-63
2024/01/14 03:49:09;;;;;;;24.83;10.05;;;;;;;;;;4954847;28;20121;-63
2024/01/14 03:51:36;;;;;;;22.98;9.20;;;;;;;;;;4945075;28;20043;-63
2024/01/14 03:54:02;;;;;;;30.92;11.73;;;;;;;;;;4922025;28;20085;-65
2024/01/14 03:56:29;;;;;;;35.17;12.13;;;;;;;;;;4959628;28;20074;-63
2024/01/14 03:58:56;;;;;;;31.65;11.68;;;;;;;;;;4958269;28;20141;-63
2024/01/14 04:01:22;;;;;;;27.67;11.32;;;;;;;;;;4940486;28;20121;-63
2024/01/14 04:03:49;;;;;;;32.17;11.70;;;;;;;;;;4922655;28;20056;-63
2024/01/14 04:06:22;;;;;;;40.25;14.50;;;;;;;;;;4937583;28;21529;-63
2024/01/14 04:08:49;;;;;;;34.47;12.60;;;;;;;;;;4940229;28;20063;-63
2024/01/14 04:11:16;;;;;;;29.23;11.77;;;;;;;;;;4941466;28;20062;-62
2024/01/14 04:13:42;;;;;;;34.50;12.20;;;;;;;;;;4928037;28;20063;-62
2024/01/14 04:16:09;;;;;;;29.67;11.10;;;;;;;;;;4950513;28;20054;-62
2024/01/14 04:18:36;;;;;;;33.50;11.88;;;;;;;;;;4958956;28;20051;-62
2024/01/14 04:21:03;;;;;;;24.77;10.32;;;;;;;;;;4939638;28;20082;-62
2024/01/14 04:23:32;;;;;;;33.67;11.52;;;;;;;;;;4951729;28;20069;-62
2024/01/14 04:25:59;;;;;;;37.88;14.13;;;;;;;;;;4912951;29;20252;-63
2024/01/14 04:28:28;;;;;;;28.02;10.13;;;;;;;;;;4937689;28;20059;-62
2024/01/14 04:30:54;;;;;;;35.83;12.07;;;;;;;;;;4920482;29;20047;-63
2024/01/14 04:33:21;;;;;;;33.78;11.95;;;;;;;;;;4923396;28;20091;-63
2024/01/14 04:35:48;;;;;;;29.00;10.50;;;;;;;;;;4938372;28;20054;-63
2024/01/14 04:38:15;;;;;;;25.38;10.05;;;;;;;;;;4938968;28;20054;-62
2024/01/14 04:40:45;;;;;;;31.38;12.00;;;;;;;;;;4940188;28;20054;-65
2024/01/14 04:43:12;;;;;;;34.10;12.20;;;;;;;;;;4940980;28;20119;-63
2024/01/14 04:45:41;;;;;;;35.00;11.68;;;;;;;;;;4952524;28;20071;-62
2024/01/14 04:48:07;;;;;;;;;;;;;;;;;;4942450;28;20066;-63
2024/01/14 04:50:35;;;;;;;26.98;10.50;;;;;;;;;;4952984;28;19926;-63
2024/01/14 04:53:02;;;;;;;27.15;10.63;;;;;;;;;;4939513;28;20053;-62
2024/01/14 04:55:29;;;;;;;36.97;13.95;;;;;;;;;;4957603;28;20055;-62
2024/01/14 04:57:57;;;;;;;37.40;13.15;;;;;;;;;;4931976;28;20142;-63
2024/01/14 05:00:24;;;;;;;27.40;11.15;;;;;;;;;;4951607;28;20083;-63
2024/01/14 05:02:50;;;;;;;29.02;10.07;;;;;;;;;;4955332;28;20054;-62
2024/01/14 05:05:17;;;;;;;32.55;10.43;;;;;;;;;;4931267;29;20051;-62
2024/01/14 05:07:44;;;;;;;32.85;11.88;;;;;;;;;;4938233;29;20070;-65
2024/01/14 05:10:11;;;;;;;28.55;11.23;;;;;;;;;;4932267;28;20055;-65
2024/01/14 05:12:38;;;;;;;25.80;9.65;;;;;;;;;;4937783;29;20133;-65
2024/01/14 05:15:09;;;;;;;34.35;12.52;;;;;;;;;;4923849;29;20087;-63
2024/01/14 05:17:36;;;;;;;31.85;11.43;;;;;;;;;;4934364;29;20066;-62
2024/01/14 05:20:04;;;;;;;33.90;11.95;;;;;;;;;;4927898;28;20047;-62
2024/01/14 05:22:33;;;;;;;31.90;11.60;;;;;;;;;;4938793;28;20074;-63
2024/01/14 05:25:00;;;;;;;29.50;10.40;;;;;;;;;;4916221;28;20054;-63
2024/01/14 05:27:27;;;;;;;23.88;9.98;;;;;;;;;;4940362;28;20065;-62
2024/01/14 05:29:54;;;;;;;27.55;11.38;;;;;;;;;;4928617;28;20083;-63
2024/01/14 05:32:22;;;;;;;32.13;10.93;;;;;;;;;;4953877;28;21018;-62
2024/01/14 05:34:50;;;;;;;31.20;10.52;;;;;;;;;;4942625;28;20142;-63
2024/01/14 05:37:16;;;;;;;26.02;10.13;;;;;;;;;;4938654;28;20067;-63
2024/01/14 05:39:43;;;;;;;22.80;8.88;;;;;;;;;;4951583;28;20067;-62
2024/01/14 05:42:10;;;;;;;25.23;9.23;;;;;;;;;;4933650;28;20051;-62
2024/01/14 05:44:37;;;;;;;27.17;9.77;;;;;;;;;;4931740;28;20122;-61
2024/01/14 05:47:04;;;;;;;26.42;9.70;;;;;;;;;;4937564;28;20051;-62
2024/01/14 05:49:32;;;;;;;24.17;10.10;;;;;;;;;;4938361;29;20059;-62
2024/01/14 05:51:59;;;;;;;32.92;10.68;;;;;;;;;;4929559;29;20118;-63
2024/01/14 05:54:26;;;;;;;26.23;10.15;;;;;;;;;;4936295;28;20162;-62
2024/01/14 05:56:53;;;;;;;28.42;10.55;;;;;;;;;;4952606;28;20091;-62
2024/01/14 05:59:19;;;;;;;27.45;10.63;;;;;;;;;;4943026;28;20053;-63
2024/01/14 06:01:46;;;;;;;23.65;9.45;;;;;;;;;;4946057;28;20152;-62
2024/01/14 06:04:16;;;;;;;30.27;11.82;;;;;;;;;;4945537;28;20157;-62
2024/01/14 06:06:44;;;;;;;22.73;9.45;;;;;;;;;;4939999;28;20078;-63
2024/01/14 06:09:11;;;;;;;20.15;7.78;;;;;;;;;;4951693;28;20345;-63
2024/01/14 06:11:40;;;;;;;23.77;8.60;;;;;;;;;;4943655;28;20074;-62
2024/01/14 06:14:07;;;;;;;;;;;;;;;;;;4912606;28;20070;-62
2024/01/14 06:16:38;;;;;;;25.88;9.75;;;;;;;;;;4919868;28;19978;-62
2024/01/14 06:19:04;;;;;;;26.48;10.48;;;;;;;;;;4916831;29;20043;-62
2024/01/14 06:21:31;;;;;;;25.98;9.65;;;;;;;;;;4925081;28;20059;-62
2024/01/14 06:23:59;;;;;;;28.35;10.65;;;;;;;;;;4934807;28;20062;-62
2024/01/14 06:26:26;;;;;;;27.05;9.52;;;;;;;;;;4957052;28;20058;-62
2024/01/14 06:28:53;;;;;;;26.67;9.60;;;;;;;;;;4958956;28;20126;-62
2024/01/14 06:31:20;;;;;;;29.20;10.45;;;;;;;;;;4957533;28;20054;-62
2024/01/14 06:33:48;;;;;;;31.98;10.07;;;;;;;;;;4935006;28;20134;-66
2024/01/14 06:36:14;;;;;;;29.20;9.88;;;;;;;;;;4956408;28;20047;-65
2024/01/14 06:38:41;;;;;;;26.77;10.10;;;;;;;;;;4940744;28;20058;-64
2024/01/14 06:41:11;;;;;;;29.65;10.10;;;;;;;;;;4938061;28;20053;-62
2024/01/14 06:43:37;;;;;;;28.50;9.48;;;;;;;;;;4943255;28;20086;-63
2024/01/14 06:46:05;;;;;;;24.20;9.32;;;;;;;;;;4935242;28;20055;-62
2024/01/14 06:48:32;;;;;;;24.55;9.25;;;;;;;;;;4938407;28;20175;-63
2024/01/14 06:50:58;;;;;;;22.33;7.97;;;;;;;;;;4956793;28;20058;-62
2024/01/14 06:53:25;;;;;;;22.38;7.97;;;;;;;;;;4941514;28;20053;-62
2024/01/14 06:55:52;;;;;;;28.65;9.65;;;;;;;;;;4928934;28;20051;-62
2024/01/14 06:58:20;;;;;;;27.98;10.57;;;;;;;;;;4933892;29;20070;-62
2024/01/14 07:00:47;;;;;;;26.00;9.95;;;;;;;;;;4929295;29;20059;-62
2024/01/14 07:03:15;;;;;;;21.25;8.43;;;;;;;;;;4929228;29;20082;-62
2024/01/14 07:05:41;;;;;;;34.90;11.27;;;;;;;;;;4882161;28;20059;-62
2024/01/14 07:08:09;;;;;;;34.38;11.38;;;;;;;;;;4932959;28;20260;-62
2024/01/14 07:10:37;;;;;;;21.08;7.75;;;;;;;;;;4934691;29;20056;-62
2024/01/14 07:13:04;;;;;;;28.80;10.27;;;;;;;;;;4915880;29;20063;-63
2024/01/14 07:15:32;;;;;;;34.30;11.18;;;;;;;;;;4942084;28;20093;-62
2024/01/14 07:17:59;;;;;;;28.23;9.38;;;;;;;;;;4954065;28;20138;-63
2024/01/14 07:20:25;;;;;;;28.13;10.18;;;;;;;;;;4940543;28;20061;-62
2024/01/14 07:22:52;;;;;;;29.10;10.07;;;;;;;;;;4941098;28;20050;-63
2024/01/14 07:25:19;;;;;;;31.23;10.75;;;;;;;;;;4960999;28;20062;-62
2024/01/14 07:27:46;;;;;;;32.60;10.43;;;;;;;;;;4944645;28;20113;-62
2024/01/14 07:30:18;;;;;;;28.35;9.77;;;;;;;;;;4937562;28;20082;-62
2024/01/14 07:32:48;;;;;;;26.23;9.02;;;;;;;;;;4958572;28;20077;-62
2024/01/14 07:35:15;;;;;;;27.13;10.30;;;;;;;;;;4918153;28;20058;-62
2024/01/14 07:37:42;;;;;;;32.00;11.75;;;;;;;;;;4943014;28;20054;-63
2024/01/14 07:40:09;;;;;;;30.63;10.02;;;;;;;;;;4945524;28;20122;-63
2024/01/14 07:42:39;;;;;;;31.48;11.45;;;;;;;;;;4961067;28;20065;-63
2024/01/14 07:45:09;;;;;;;21.83;8.07;;;;;;;;;;4872264;29;20062;-63
2024/01/14 07:47:36;;;;;;;28.40;9.90;;;;;;;;;;4947822;28;20058;-62
2024/01/14 07:50:04;;;;;;;31.58;10.40;;;;;;;;;;4943574;28;20110;-63
2024/01/14 07:52:32;;;;;;;;;;;;;;;;;;4973712;28;20058;-63
2024/01/14 07:55:00;;;;;;;23.63;8.90;;;;;;;;;;4949322;28;19933;-63
2024/01/14 07:57:27;;;;;;;25.23;7.95;;;;;;;;;;4962201;28;20061;-63
2024/01/14 07:59:54;;;;;;;25.02;8.77;;;;;;;;;;4956764;28;20054;-63
2024/01/14 08:02:23;;;;;;;24.85;8.82;;;;;;;;;;4962040;28;20105;-63
2024/01/14 08:04:50;;;;;;;26.35;9.90;;;;;;;;;;4954203;28;20083;-63
2024/01/14 08:07:19;;;;;;;25.08;8.95;;;;;;;;;;4944449;28;20078;-62
2024/01/14 08:09:50;;;;;;;33.05;11.40;;;;;;;;;;4944315;28;20050;-62
2024/01/14 08:12:19;;;;;;;22.25;7.80;;;;;;;;;;4944800;28;20047;-62
2024/01/14 08:14:46;;;;;;;24.48;9.45;;;;;;;;;;4940323;28;20054;-65
2024/01/14 08:17:16;;;;;;;26.50;9.07;;;;;;;;;;4957948;28;20064;-64
2024/01/14 08:19:45;;;;;;;32.42;10.18;;;;;;;;;;4960975;28;20047;-62
2024/01/14 08:22:11;;;;;;;;;;;;;;;;;;4944566;28;20055;-63
2024/01/14 08:24:44;;;;;;;21.85;7.80;;;;;;;;;;4938388;28;19930;-63
2024/01/14 08:27:11;;;;;;;28.05;9.32;;;;;;;;;;4944184;28;20158;-63
2024/01/14 08:29:38;;;;;;;35.28;12.18;;;;;;;;;;4949856;28;20055;-63
2024/01/14 08:32:05;;;;;;;33.10;12.13;;;;;;;;;;4939123;28;20066;-63
2024/01/14 08:34:32;;;;;;;24.55;8.85;;;;;;;;;;4933571;28;20050;-63
2024/01/14 08:37:02;;;;;;;22.33;8.63;;;;;;;;;;4959572;28;20113;-63
2024/01/14 08:39:31;;;;;;;28.00;9.93;;;;;;;;;;4943504;28;20106;-63
2024/01/14 08:41:59;;;;;;;23.58;9.30;;;;;;;;;;4939951;28;20065;-63
2024/01/14 08:44:26;;;;;;;25.02;8.82;;;;;;;;;;4922242;28;20058;-64
2024/01/14 08:46:56;;;;;;;22.52;9.20;;;;;;;;;;4959168;28;20064;-63
2024/01/14 08:49:26;;;;;;;29.42;10.93;;;;;;;;;;4955077;28;20066;-63
2024/01/14 08:51:56;;;;;;;25.63;9.70;;;;;;;;;;4972436;28;20090;-63
2024/01/14 08:54:23;;;;;;;27.30;10.10;;;;;;;;;;4956671;28;20050;-63
2024/01/14 08:56:50;;;;;;;25.02;9.52;;;;;;;;;;4945344;28;20117;-63
2024/01/14 08:59:20;;;;;;;32.83;11.65;;;;;;;;;;4948656;28;20055;-63
2024/01/14 09:01:50;;;;;;;28.73;9.23;;;;;;;;;;4933609;28;20166;-63
2024/01/14 09:04:17;;;;;;;18.70;6.30;;;;;;;;;;4947571;28;20082;-63
2024/01/14 09:06:44;;;;;;;22.02;8.43;;;;;;;;;;4940182;28;20047;-63
2024/01/14 09:09:11;;;;;;;26.10;9.27;;;;;;;;;;4942645;28;20102;-62
2024/01/14 09:11:38;;;;;;;19.95;7.20;;;;;;;;;;4944402;28;20066;-62
2024/01/14 09:14:05;;;;;;;19.83;7.82;;;;;;;;;;4923658;28;20080;-63
2024/01/14 09:16:34;;;;;;;24.13;8.57;;;;;;;;;;4949216;28;20055;-62
2024/01/14 09:19:01;;;;;;;23.67;8.43;;;;;;;;;;4943267;28;20046;-62
2024/01/14 09:21:28;;;;;;;18.60;6.78;;;;;;;;;;4960011;28;20129;-62
2024/01/14 09:23:55;;;;;;;22.67;7.97;;;;;;;;;;4935359;28;20046;-63
2024/01/14 09:26:22;;;;;;;24.40;8.57;;;;;;;;;;4955398;28;20248;-62
2024/01/14 09:28:49;;;;;;;22.55;8.65;;;;;;;;;;4943868;28;20121;-61
2024/01/14 09:31:15;;;;;;;27.05;9.55;;;;;;;;;;4943258;28;20054;-62
2024/01/14 09:33:45;;;;;;;25.20;8.85;;;;;;;;;;4929146;28;20042;-64
2024/01/14 09:36:12;;;;;;;25.50;9.82;;;;;;;;;;4928241;28;20297;-62
2024/01/14 09:38:38;;;;;;;24.15;8.77;;;;;;;;;;4938544;28;20055;-63
2024/01/14 09:41:17;;;;;;;23.88;8.35;;;;;;;;;;4938136;28;20121;-63
2024/01/14 09:43:50;;;;;;;25.92;9.57;;;;;;;;;;4931703;28;20062;-63
2024/01/14 09:46:17;;;;;;;25.60;8.52;;;;;;;;;;4944392;28;20066;-63
2024/01/14 09:48:47;;;;;;;23.77;9.43;;;;;;;;;;4928474;28;20055;-63
2024/01/14 09:51:16;;;;;;;26.33;9.02;;;;;;;;;;4958468;28;20062;-63
2024/01/14 09:53:45;;;;;;;27.00;9.73;;;;;;;;;;4940520;28;20101;-62
2024/01/14 09:56:15;;;;;;;29.40;9.30;;;;;;;;;;4904807;28;21314;-63
2024/01/14 09:58:42;;;;;;;24.35;8.35;;;;;;;;;;4948986;28;20133;-63
2024/01/14 10:01:15;;;;;;;23.92;7.88;;;;;;;;;;4944312;28;20118;-63
2024/01/14 10:03:42;;;;;;;26.60;9.15;;;;;;;;;;4930594;28;20055;-63
2024/01/14 10:06:12;;;;;;;25.83;10.38;;;;;;;;;;4911647;28;20329;-62
2024/01/14 10:08:43;;;;;;;25.75;9.93;;;;;;;;;;4940905;28;20066;-62
2024/01/14 10:11:13;;;;;;;24.73;9.05;;;;;;;;;;4954414;28;20155;-63
2024/01/14 10:13:41;;;;;;;25.33;9.85;;;;;;;;;;4955515;28;20065;-63
2024/01/14 10:16:09;;;;;;;28.85;9.75;;;;;;;;;;4911432;28;20078;-62
2024/01/14 10:18:37;;;;;;;31.15;10.43;;;;;;;;;;4953988;28;20086;-64
2024/01/14 10:21:05;;;;;;;45.25;13.10;;;;;;;;;;4951186;28;20055;-63
2024/01/14 10:23:37;;;;;;;29.15;10.10;;;;;;;;;;4939693;28;20055;-64
2024/01/14 10:26:04;;;;;;;35.22;11.15;;;;;;;;;;4924941;28;20050;-63
2024/01/14 10:28:36;;;;;;;39.55;13.30;;;;;;;;;;4946663;28;20055;-63
2024/01/14 10:31:04;;;;;;;30.27;10.55;;;;;;;;;;4938758;28;20058;-63
2024/01/14 10:33:31;;;;;;;;;;;;;;;;;;4947492;28;20158;-63
2024/01/14 10:35:59;;;;;;;23.40;7.72;;;;;;;;;;4923057;28;19933;-66
2024/01/14 10:38:26;;;;;;;30.92;10.75;;;;;;;;;;4946903;28;20058;-63
2024/01/14 10:40:56;;;;;;;31.52;10.48;;;;;;;;;;4951240;28;20051;-64
2024/01/14 10:43:26;;;;;;;31.45;11.60;;;;;;;;;;4956713;28;20066;-63
2024/01/14 10:45:58;;;;;;;33.47;11.43;;;;;;;;;;4929611;28;20063;-64
2024/01/14 10:48:27;;;;;;;36.55;11.70;;;;;;;;;;4950915;28;20051;-63
2024/01/14 10:50:55;;;;;;;32.20;11.02;;;;;;;;;;4939336;28;20065;-63
2024/01/14 10:53:24;;;;;;;32.53;10.38;;;;;;;;;;4933565;28;20066;-63
2024/01/14 10:55:54;;;;;;;;;;;;;;;;;;4893151;28;20050;-63
2024/01/14 10:58:29;;;;;;;32.42;11.02;;;;;;;;;;4941729;28;19942;-63
2024/01/14 11:01:02;;;;;;;37.70;11.98;;;;;;;;;;4947548;28;20062;-64
2024/01/14 11:03:30;;;;;;;27.92;9.60;;;;;;;;;;4948441;28;20055;-63
2024/01/14 11:05:57;;;;;;;29.25;9.35;;;;;;;;;;4885894;28;20063;-65
2024/01/14 11:08:24;;;;;;;32.50;11.40;;;;;;;;;;4916365;29;20127;-63
2024/01/14 11:10:53;;;;;;;31.15;11.07;;;;;;;;;;4920085;29;20059;-63
2024/01/14 11:13:26;;;;;;;29.00;9.68;;;;;;;;;;4928805;28;20056;-63
2024/01/14 11:16:00;;;;;;;29.00;11.13;;;;;;;;;;4897235;28;20054;-64
2024/01/14 11:18:31;;;;;;;26.13;9.73;;;;;;;;;;4956709;28;20158;-63
2024/01/14 11:21:09;;;;;;;26.20;9.48;;;;;;;;;;4938110;28;20051;-63
2024/01/14 11:23:52;;;;;;;26.73;9.33;;;;;;;;;;4941156;28;20055;-64
2024/01/14 11:26:29;;;;;;;31.48;10.20;;;;;;;;;;4908372;29;20304;-64
2024/01/14 11:29:00;;;;;;;29.58;9.07;;;;;;;;;;4914376;29;20127;-62
2024/01/14 11:32:00;;;;;;;36.00;11.27;;;;;;;;;;4909843;29;20059;-63
2024/01/14 11:34:57;;;;;;;33.88;11.50;;;;;;;;;;4918610;28;20071;-63
2024/01/14 11:37:47;;;;;;;34.03;12.73;;;;;;;;;;4908568;29;20123;-62
2024/01/14 11:40:37;;;;;;;29.83;10.90;;;;;;;;;;4913490;29;20302;-63
2024/01/14 11:43:08;;;;;;;27.80;10.77;;;;;;;;;;4910051;29;20060;-63
2024/01/14 11:45:41;;;;;;;33.20;11.27;;;;;;;;;;4912641;28;20065;-63
2024/01/14 11:48:11;;;;;;;28.35;10.07;;;;;;;;;;4942203;28;20336;-63
2024/01/14 11:50:37;;;;;;;28.08;8.77;;;;;;;;;;4926185;28;20051;-63
2024/01/14 11:53:09;;;;;;;29.67;11.27;;;;;;;;;;4959039;28;20129;-63
2024/01/14 11:55:37;;;;;;;27.27;10.18;;;;;;;;;;4925229;28;20059;-64
2024/01/14 11:58:14;;;;;;;;;;;;;;;;;;4930066;28;20055;-63
2024/01/14 12:00:43;;;;;;;17.15;5.95;;;;;;;;;;4936630;28;20118;-64
2024/01/14 12:03:12;;;;;;;23.35;8.68;;;;;;;;;;4952147;28;20146;-63
2024/01/14 12:05:41;;;;;;;25.33;8.77;;;;;;;;;;4914370;28;20142;-63
2024/01/14 12:08:08;;;;;;;25.27;9.88;;;;;;;;;;4933076;28;20062;-63
2024/01/14 12:10:35;;;;;;;22.30;8.50;;;;;;;;;;4938203;28;20083;-63
2024/01/14 12:13:04;;;;;;;23.67;9.00;;;;;;;;;;4956869;28;20055;-63
2024/01/14 12:15:31;;;;;;;23.48;8.40;;;;;;;;;;4950185;28;20053;-62
2024/01/14 12:18:00;;;;;;;19.83;8.07;;;;;;;;;;4938423;28;20051;-63
2024/01/14 12:20:29;;;;;;;23.58;9.68;;;;;;;;;;4951844;28;20054;-63
2024/01/14 12:22:57;;;;;;;29.67;10.07;;;;;;;;;;4939881;28;20151;-63
2024/01/14 12:25:26;;;;;;;23.90;8.48;;;;;;;;;;4891688;28;20086;-63
2024/01/14 12:27:56;;;;;;;30.67;9.25;;;;;;;;;;4922790;28;20048;-63
2024/01/14 12:30:30;;;;;;;22.93;8.17;;;;;;;;;;4936890;29;20063;-63
2024/01/14 12:32:59;;;;;;;27.45;9.45;;;;;;;;;;4914291;28;20319;-62
2024/01/14 12:35:34;;;;;;;29.67;11.18;;;;;;;;;;4934239;28;20058;-62
2024/01/14 12:38:01;;;;;;;31.27;12.00;;;;;;;;;;4959463;28;20133;-64
2024/01/14 12:40:30;;;;;;;28.83;11.07;;;;;;;;;;4956150;28;20054;-63
2024/01/14 12:42:58;;;;;;;25.52;8.40;;;;;;;;;;4953172;28;20122;-64
2024/01/14 12:45:25;;;;;;;33.40;9.65;;;;;;;;;;4930664;28;20206;-64
2024/01/14 12:48:00;;;;;;;28.02;10.20;;;;;;;;;;4945849;28;20051;-65
2024/01/14 12:50:28;;;;;;;34.08;11.80;;;;;;;;;;4955215;28;20061;-63
2024/01/14 12:53:03;;;;;;;32.28;10.07;;;;;;;;;;4955300;28;20059;-63
2024/01/14 12:55:31;;;;;;;27.08;9.25;;;;;;;;;;4907421;28;20065;-64
2024/01/14 12:58:00;;;;;;;20.80;8.15;;;;;;;;;;4933214;28;20047;-63
2024/01/14 13:00:28;;;;;;;22.20;8.32;;;;;;;;;;4960227;28;20055;-62
2024/01/14 13:02:55;;;;;;;20.05;7.80;;;;;;;;;;4947227;28;20069;-63
2024/01/14 13:05:22;;;;;;;22.73;8.38;;;;;;;;;;4936286;28;20062;-63
2024/01/14 13:07:52;;;;;;;23.75;9.20;;;;;;;;;;4916836;29;20091;-64
2024/01/14 13:10:23;;;;;;;24.25;8.40;;;;;;;;;;4918081;29;20060;-62
2024/01/14 13:12:50;;;;;;;31.40;11.07;;;;;;;;;;4922423;29;20091;-63
2024/01/14 13:15:17;;;;;;;29.45;8.00;;;;;;;;;;4863363;28;20114;-63
2024/01/14 13:17:45;;;;;;;24.00;7.90;;;;;;;;;;4932126;29;20047;-62
2024/01/14 13:20:13;;;;;;;19.65;8.27;;;;;;;;;;4935873;28;20058;-63
2024/01/14 13:22:40;;;;;;;36.10;11.25;;;;;;;;;;4935088;28;20050;-63
2024/01/14 13:25:11;;;;;;;28.50;10.68;;;;;;;;;;4926094;28;20059;-62
2024/01/14 13:27:40;;;;;;;37.72;12.75;;;;;;;;;;4937787;29;20098;-62
2024/01/14 13:33:29;;;;;;;24.65;8.00;;;;;;;;;;4875872;29;20001;-63
2024/01/14 13:35:57;;;;;;;;;;;;;;;;;;4919700;28;20063;-63
2024/01/14 13:38:26;;;;;;;;;;;;;;;;;;4938816;28;19922;-62
2024/01/14 13:40:55;;;;;;;20.40;6.70;;;;;;;;;;4940668;28;19926;-63
2024/01/14 13:43:28;;;;;;;24.55;8.70;;;;;;;;;;4956235;28;20058;-62
2024/01/14 13:45:57;;;;;;;22.15;9.27;;;;;;;;;;4929183;28;20063;-65
2024/01/14 13:48:24;;;;;;;18.88;6.25;;;;;;;;;;4943087;28;20161;-61
2024/01/14 13:50:53;;;;;;;30.98;11.15;;;;;;;;;;4938689;28;20057;-63
2024/01/14 13:53:20;;;;;;;;;;;;;;;;;;4938976;29;20148;-63
2024/01/14 13:55:54;;;;;;;23.17;8.60;;;;;;;;;;4939743;28;19932;-64
2024/01/14 13:58:21;;;;;;;32.60;10.85;;;;;;;;;;4952545;28;20144;-64
2024/01/14 14:00:52;;;;;;;21.60;9.30;;;;;;;;;;4966316;28;20055;-63
2024/01/14 14:03:19;;;;;;;26.00;9.73;;;;;;;;;;4959597;28;20050;-63
2024/01/14 14:05:54;;;;;;;23.98;8.20;;;;;;;;;;4913009;29;20059;-63
2024/01/14 14:08:23;;;;;;;21.15;8.63;;;;;;;;;;4961976;28;20977;-64
2024/01/14 14:10:50;;;;;;;20.35;7.55;;;;;;;;;;4943019;28;20051;-63
2024/01/14 14:13:17;;;;;;;21.17;7.80;;;;;;;;;;4941644;28;20133;-61
2024/01/14 14:15:47;;;;;;;17.88;6.03;;;;;;;;;;4915278;28;20059;-62
2024/01/14 14:18:16;;;;;;;21.95;7.65;;;;;;;;;;4939599;28;20129;-63
2024/01/14 14:20:44;;;;;;;20.75;8.50;;;;;;;;;;4956593;28;20059;-62
2024/01/14 14:23:13;;;;;;;25.42;8.63;;;;;;;;;;4941217;28;20066;-62
2024/01/14 14:25:40;;;;;;;22.95;9.07;;;;;;;;;;4918626;28;20074;-62
2024/01/14 14:28:07;;;;;;;29.30;9.07;;;;;;;;;;4932813;28;20114;-62
2024/01/14 14:30:33;;;;;;;21.02;7.93;;;;;;;;;;4942136;28;20055;-63
2024/01/14 14:33:00;;;;;;;21.45;7.80;;;;;;;;;;4953744;28;20169;-63
2024/01/14 14:35:30;;;;;;;26.08;9.18;;;;;;;;;;4933689;28;20073;-62
2024/01/14 14:37:57;;;;;;;22.95;8.68;;;;;;;;;;4954881;28;20058;-62
2024/01/14 14:40:24;;;;;;;22.92;8.38;;;;;;;;;;4938352;28;20079;-63